Etusivu
METAR-TAF:

METAR-TAF

Lentoasemat :

Yellowstone Lake, Wyoming, Yhdysvallat

Leveyspiiri: 44-32-40N, Pituuspiiri: 110-25-16W, korkeus merenpinnasta: 2388 m

Tämänhetkinen sää

Tämä raportti tehtiin 1 tunti ja 9 minuuttia sitten, kello 13.56 UTC
tyyntä
Lämpötila -14°C
Kosteus 92%
Ilmanpaine 1008 hPa

METAR: KP60 151356Z AUTO 00000KT M14/M15 A2977 RMK AO1 SLP177 T11391150

Aika: 08:05 (15:05 UTC)


TAF: puuttuu

Säähavainnot ja -ennusteet yli 4000 lentoasemalta (METAR- ja TAF-raportit).

Käytössä olevat sääasemat on merkitty karttaan keltaisilla ja punaisilla pisteillä.

Aseta hiiri pisteen päälle nähdäksesi sääaseman nimen.

Klikkaa sitten nähdäksesi säähavainnot ja -ennusteet.

Kartan vaihtaminen: klikkaa mustalla rastilla varustettuja vihreitä pisteitä, niin voit zoomata sisään; viivalla varustettua vihreää pistettä, niin voit zoomata ulos tai vihreitä nuolia, niin pääset viereisille kartoille.


METAR-TAF: